Time;durP1;ratioP1;P1;durP2;ratioP2;P2;SDS_P1;SDS_P2;PMS_P1;PMS_P2;Temp;Humidity;BMP_temperature;BMP_pressure;BME280_temperature;BME280_humidity;BME280_pressure;Samples;Min_cycle;Max_cycle;Signal;HPM_P1;HPM_P2
2022/09/09 00:02:00;;;;;;;;;;;;;;;13.11;100.00;100696.84;4978940;28;19933;-75
2022/09/09 00:04:27;;;;;;;;;;;;;;;13.08;100.00;100686.41;5011710;28;20288;-75
2022/09/09 00:06:53;;;;;;;;;;;;;;;13.04;100.00;100680.44;5010964;28;19925;-75
2022/09/09 00:09:19;;;;;;;;;;;;;;;13.02;100.00;100682.34;4994659;28;19926;-75
2022/09/09 00:12:03;;;;;;;;;;;;;;;13.01;100.00;100677.94;5011108;28;20024;-75
2022/09/09 00:14:33;;;;;;;;;;;;;;;13.00;100.00;100674.44;5007516;28;20033;-75
2022/09/09 00:17:01;;;;;;;;;;;;;;;12.99;100.00;100677.19;4991145;28;19937;-75
2022/09/09 00:19:30;;;;;;;;;;;;;;;12.96;100.00;100672.91;4979174;28;19926;-75
2022/09/09 00:21:57;;;;;;;;;;;;;;;12.94;100.00;100672.13;4979390;28;19933;-75
2022/09/09 00:24:25;;;;;;;;;;;;;;;12.95;100.00;100668.53;4976860;28;20355;-75
2022/09/09 00:26:51;;;;;;;;;;;;;;;12.96;100.00;100667.59;5011388;28;19926;-75
2022/09/09 00:29:21;;;;;;;;;;;;;;;12.95;100.00;100662.34;4992756;28;19933;-75
2022/09/09 00:31:47;;;;;;;;;;;;;;;12.94;100.00;100660.63;4989571;28;19933;-75
2022/09/09 00:34:14;;;;;;;;;;;;;;;12.93;100.00;100661.59;5010218;28;20564;-75
2022/09/09 00:36:40;;;;;;;;;;;;;;;12.90;100.00;100655.53;4994744;28;19930;-75
2022/09/09 00:39:06;;;;;;;;;;;;;;;12.88;100.00;100661.88;5010588;28;19936;-75
2022/09/09 00:41:37;;;;;;;;;;;;;;;12.86;100.00;100661.09;5009894;28;19926;-75
2022/09/09 00:44:13;;;;;;;;;;;;;;;12.84;100.00;100658.53;4979293;28;19926;-75
2022/09/09 00:46:39;;;;;;;;;;;;;;;12.85;100.00;100657.59;4976884;28;19926;-75
2022/09/09 00:49:11;;;;;;;;;;;;;;;12.84;100.00;100655.88;5010356;28;20489;-75
2022/09/09 00:51:41;;;;;;;;;;;;;;;12.85;100.00;100660.25;5011196;28;20482;-75
2022/09/09 00:54:10;;;;;;;;;;;;;;;12.86;100.00;100661.94;5008457;28;19929;-75
2022/09/09 00:56:55;;;;;;;;;;;;;;;12.87;100.00;100658.34;4978866;28;20373;-75
2022/09/09 00:59:25;;;;;;;;;;;;;;;12.88;100.00;100660.06;4990632;28;19940;-75
2022/09/09 01:01:50;;;;;;;;;;;;;;;12.88;100.00;100665.38;4989628;28;20044;-75
2022/09/09 01:04:17;;;;;;;;;;;;;;;12.90;100.00;100662.63;5010260;28;19925;-75
2022/09/09 01:06:42;;;;;;;;;;;;;;;12.92;100.00;100662.53;4979357;28;20024;-75
2022/09/09 01:09:10;;;;;;;;;;;;;;;12.95;100.00;100663.22;5009620;28;19930;-75
2022/09/09 01:11:36;;;;;;;;;;;;;;;13.00;100.00;100666.47;4978683;28;19930;-75
2022/09/09 01:14:05;;;;;;;;;;;;;;;13.06;100.00;100667.06;4989916;28;19937;-75
2022/09/09 01:16:31;;;;;;;;;;;;;;;13.10;100.00;100664.13;4988941;28;20411;-75
2022/09/09 01:18:56;;;;;;;;;;;;;;;13.15;100.00;100658.53;4977720;28;19930;-75
2022/09/09 01:21:25;;;;;;;;;;;;;;;13.20;100.00;100663.56;5010294;28;20068;-75
2022/09/09 01:24:13;;;;;;;;;;;;;;;13.23;100.00;100661.59;4978895;28;20438;-75
2022/09/09 01:26:42;;;;;;;;;;;;;;;13.27;100.00;100649.84;4977098;28;19925;-75
2022/09/09 01:29:08;;;;;;;;;;;;;;;13.29;100.00;100644.44;4989338;28;20680;-75
2022/09/09 01:31:39;;;;;;;;;;;;;;;13.30;100.00;100643.47;4990862;28;19929;-75
2022/09/09 01:34:09;;;;;;;;;;;;;;;13.32;100.00;100646.91;4977777;28;20012;-74
2022/09/09 01:36:42;;;;;;;;;;;;;;;13.32;100.00;100641.56;5009058;28;19933;-75
2022/09/09 01:39:07;;;;;;;;;;;;;;;13.32;100.00;100636.25;5009803;28;20070;-75
2022/09/09 01:41:33;;;;;;;;;;;;;;;13.32;100.00;100638.91;4978977;28;20028;-75
2022/09/09 01:43:58;;;;;;;;;;;;;;;13.31;100.00;100635.38;4992917;28;19937;-75
2022/09/09 01:46:24;;;;;;;;;;;;;;;13.31;100.00;100638.03;4989353;28;19930;-75
2022/09/09 01:48:52;;;;;;;;;;;;;;;13.32;100.00;100641.56;4977347;28;19930;-75
2022/09/09 01:51:18;;;;;;;;;;;;;;;13.30;100.00;100638.16;5007544;28;19930;-75
2022/09/09 01:53:43;;;;;;;;;;;;;;;13.29;100.00;100639.13;4990411;28;19936;-75
2022/09/09 01:56:19;;;;;;;;;;;;;;;13.29;100.00;100636.47;5007056;28;19937;-73
2022/09/09 01:58:47;;;;;;;;;;;;;;;13.27;100.00;100639.19;4976303;28;20341;-74
2022/09/09 02:01:16;;;;;;;;;;;;;;;13.26;100.00;100636.63;5007621;28;19961;-74
2022/09/09 02:03:41;;;;;;;;;;;;;;;13.24;100.00;100643.84;5009861;28;20418;-74
2022/09/09 02:06:28;;;;;;;;;;;;;;;13.23;100.00;100635.00;4978565;28;19930;-74
2022/09/09 02:08:55;;;;;;;;;;;;;;;13.21;100.00;100638.69;4989878;28;20040;-74
2022/09/09 02:11:24;;;;;;;;;;;;;;;13.20;100.00;100637.84;5009289;28;19937;-73
2022/09/09 02:13:51;;;;;;;;;;;;;;;13.19;100.00;100638.81;5009728;28;19937;-74
2022/09/09 02:16:22;;;;;;;;;;;;;;;13.18;100.00;100632.63;4977094;28;19926;-74
2022/09/09 02:18:53;;;;;;;;;;;;;;;13.18;100.00;100627.31;4977013;28;20447;-74
2022/09/09 02:21:18;;;;;;;;;;;;;;;13.18;100.00;100640.59;5007134;28;19929;-74
2022/09/09 02:23:44;;;;;;;;;;;;;;;13.20;100.00;100644.97;5010116;28;19932;-74
2022/09/09 02:26:10;;;;;;;;;;;;;;;13.20;100.00;100648.50;5008317;28;19925;-74
2022/09/09 02:28:35;;;;;;;;;;;;;;;13.21;100.00;100638.69;4977468;28;19930;-74
2022/09/09 02:31:01;;;;;;;;;;;;;;;13.22;100.00;100643.06;4977133;28;19926;-74
2022/09/09 02:33:29;;;;;;;;;;;;;;;13.22;100.00;100633.28;5009441;28;19926;-74
2022/09/09 02:35:56;;;;;;;;;;;;;;;13.21;100.00;100636.03;5008362;28;20521;-73
2022/09/09 02:38:22;;;;;;;;;;;;;;;13.20;100.00;100637.00;4976546;28;19936;-74
2022/09/09 02:40:48;;;;;;;;;;;;;;;13.18;100.00;100622.00;4977260;28;19933;-74
2022/09/09 02:43:16;;;;;;;;;;;;;;;13.18;100.00;100619.34;4990124;28;19929;-73
2022/09/09 02:45:42;;;;;;;;;;;;;;;13.18;100.00;100623.78;4969765;28;19941;-73
2022/09/09 02:48:09;;;;;;;;;;;;;;;13.20;100.00;100629.00;5013068;28;20321;-73
2022/09/09 02:50:37;;;;;;;;;;;;;;;13.20;100.00;100629.00;5012433;28;20689;-73
2022/09/09 02:53:07;;;;;;;;;;;;;;;13.18;100.00;100623.78;5009508;28;19925;-74
2022/09/09 02:55:36;;;;;;;;;;;;;;;13.16;100.00;100621.25;5011766;28;19926;-73
2022/09/09 02:58:05;;;;;;;;;;;;;;;13.15;100.00;100639.94;4981164;28;19984;-74
2022/09/09 03:00:32;;;;;;;;;;;;;;;13.12;100.00;100635.66;4976757;28;20284;-73
2022/09/09 03:02:57;;;;;;;;;;;;;;;13.09;100.00;100635.84;5010131;28;20307;-73
2022/09/09 03:05:23;;;;;;;;;;;;;;;13.08;100.00;100639.41;4992726;28;20065;-74
2022/09/09 03:07:50;;;;;;;;;;;;;;;13.08;100.00;100638.59;4996608;28;20533;-74
2022/09/09 03:10:17;;;;;;;;;;;;;;;13.07;100.00;100637.72;4979369;28;19933;-74
2022/09/09 03:12:42;;;;;;;;;;;;;;;13.07;100.00;100637.72;5013300;28;19937;-73
2022/09/09 03:15:11;;;;;;;;;;;;;;;13.09;100.00;100633.19;4979845;28;20553;-74
2022/09/09 03:17:37;;;;;;;;;;;;;;;13.11;100.00;100636.59;4980426;28;19961;-74
2022/09/09 03:20:03;;;;;;;;;;;;;;;13.13;100.00;100637.34;4997100;28;20416;-74
2022/09/09 03:22:28;;;;;;;;;;;;;;;13.14;100.00;100636.41;4981450;28;20404;-74
2022/09/09 03:24:54;;;;;;;;;;;;;;;13.16;100.00;100633.66;4979907;28;19934;-73
2022/09/09 03:27:19;;;;;;;;;;;;;;;13.17;100.00;100632.72;4979737;28;19985;-73
2022/09/09 03:29:45;;;;;;;;;;;;;;;13.18;100.00;100634.41;4993305;28;19975;-73
2022/09/09 03:32:11;;;;;;;;;;;;;;;13.20;100.00;100639.66;5010928;28;19925;-74
2022/09/09 03:34:38;;;;;;;;;;;;;;;13.20;100.00;100637.84;4979815;28;20377;-73
2022/09/09 03:37:04;;;;;;;;;;;;;;;13.20;100.00;100635.19;4979008;28;19934;-74
2022/09/09 03:39:30;;;;;;;;;;;;;;;13.21;100.00;100636.91;4978968;28;19971;-74
2022/09/09 03:41:55;;;;;;;;;;;;;;;13.20;100.00;100629.88;4978484;28;20338;-74
2022/09/09 03:44:21;;;;;;;;;;;;;;;13.22;100.00;100624.44;4976818;28;20020;-74
2022/09/09 03:46:46;;;;;;;;;;;;;;;13.22;100.00;100621.78;4979769;28;19926;-74
2022/09/09 03:49:12;;;;;;;;;;;;;;;13.21;100.00;100623.63;4978951;28;20339;-74
2022/09/09 03:51:38;;;;;;;;;;;;;;;13.22;100.00;100614.69;4978695;28;19975;-74
2022/09/09 03:54:04;;;;;;;;;;;;;;;13.21;100.00;100620.09;4979045;28;20032;-74
2022/09/09 03:56:31;;;;;;;;;;;;;;;13.20;100.00;100615.72;5010323;28;20020;-73
2022/09/09 03:58:57;;;;;;;;;;;;;;;13.20;100.00;100615.72;4978328;28;20429;-73
2022/09/09 04:01:25;;;;;;;;;;;;;;;13.19;100.00;100612.22;4977718;28;19929;-73
2022/09/09 04:03:52;;;;;;;;;;;;;;;13.18;100.00;100616.69;4994834;28;19933;-74
2022/09/09 04:06:18;;;;;;;;;;;;;;;13.17;100.00;100616.75;4991891;28;19929;-74
2022/09/09 04:08:44;;;;;;;;;;;;;;;13.16;100.00;100620.38;5009135;28;20028;-74
2022/09/09 04:11:12;;;;;;;;;;;;;;;13.15;100.00;100622.19;4992458;28;20332;-74
2022/09/09 04:13:41;;;;;;;;;;;;;;;13.16;100.00;100620.38;4992625;28;20012;-74
2022/09/09 04:16:08;;;;;;;;;;;;;;;13.16;100.00;100629.22;4979049;28;20297;-74
2022/09/09 04:18:34;;;;;;;;;;;;;;;13.17;100.00;100630.06;4993338;28;20112;-74
2022/09/09 04:20:59;;;;;;;;;;;;;;;13.17;100.00;100620.28;4992281;28;19929;-74
2022/09/09 04:23:28;;;;;;;;;;;;;;;13.17;100.00;100607.00;4993776;28;19980;-74
2022/09/09 04:25:54;;;;;;;;;;;;;;;13.19;100.00;100617.53;4978522;28;19929;-74
2022/09/09 04:28:20;;;;;;;;;;;;;;;13.20;100.00;100618.38;5010511;28;20417;-74
2022/09/09 04:30:46;;;;;;;;;;;;;;;13.21;100.00;100612.13;4977880;28;20293;-74
2022/09/09 04:33:11;;;;;;;;;;;;;;;13.22;100.00;100613.81;5008886;28;19936;-74
2022/09/09 04:36:13;;;;;;;;;;;;;;;13.23;100.00;100616.41;5067897;27;20303;-72
2022/09/09 04:38:39;;;;;;;;;;;;;;;13.23;100.00;100621.72;5079998;28;19935;-71
2022/09/09 04:41:04;;;;;;;;;;;;;;;13.24;100.00;100619.91;5065063;28;19939;-72
2022/09/09 04:43:30;;;;;;;;;;;;;;;13.25;100.00;100618.97;5081847;28;19935;-73
2022/09/09 04:45:56;;;;;;;;;;;;;;;13.25;100.00;100618.97;5052359;28;20536;-73
2022/09/09 04:48:21;;;;;;;;;;;;;;;13.25;100.00;100616.31;5053074;28;20399;-72
2022/09/09 04:51:04;;;;;;;;;;;;;;;13.27;100.00;100617.94;5064259;28;19978;-72
2022/09/09 04:53:30;;;;;;;;;;;;;;;13.28;100.00;100621.44;5068723;28;19929;-73
2022/09/09 04:56:05;;;;;;;;;;;;;;;13.26;100.00;100615.34;5065430;28;20574;-74
2022/09/09 04:58:31;;;;;;;;;;;;;;;13.25;100.00;100614.50;5065040;28;20018;-73
2022/09/09 05:01:07;;;;;;;;;;;;;;;13.25;100.00;100618.97;5066357;28;19926;-73
2022/09/09 05:03:32;;;;;;;;;;;;;;;13.25;100.00;100625.13;5066001;28;19924;-72
2022/09/09 05:06:08;;;;;;;;;;;;;;;13.22;100.00;100620.00;5066806;28;20036;-71
2022/09/09 05:08:35;;;;;;;;;;;;;;;13.21;100.00;100625.41;5064459;28;20011;-72
2022/09/09 05:11:01;;;;;;;;;;;;;;;13.20;100.00;100627.22;5065547;28;20019;-73
2022/09/09 05:13:27;;;;;;;;;;;;;;;13.21;100.00;100628.06;5066377;28;19929;-72
2022/09/09 05:15:53;;;;;;;;;;;;;;;13.21;100.00;100638.69;5064950;28;21299;-73
2022/09/09 05:18:18;;;;;;;;;;;;;;;13.18;100.00;100627.31;5050666;28;20418;-71
2022/09/09 05:20:43;;;;;;;;;;;;;;;13.20;100.00;100621.03;5064830;28;20027;-72
2022/09/09 05:23:11;;;;;;;;;;;;;;;13.20;100.00;100621.91;5062004;28;19968;-72
2022/09/09 05:25:36;;;;;;;;;;;;;;;13.21;100.00;100622.75;5065047;28;19956;-72
2022/09/09 05:28:01;;;;;;;;;;;;;;;13.19;100.00;100617.53;5033881;28;19977;-73
2022/09/09 05:30:27;;;;;;;;;;;;;;;13.17;100.00;100620.28;5052707;28;20610;-72
2022/09/09 05:32:55;;;;;;;;;;;;;;;13.18;100.00;100623.78;5062820;28;20033;-72
2022/09/09 05:35:20;;;;;;;;;;;;;;;13.18;100.00;100623.78;5064718;28;20311;-73
2022/09/09 05:37:46;;;;;;;;;;;;;;;13.18;100.00;100623.78;5067922;28;19947;-73
2022/09/09 05:40:12;;;;;;;;;;;;;;;13.18;100.00;100632.63;5062558;28;20287;-73
2022/09/09 05:42:38;;;;;;;;;;;;;;;13.17;100.00;100630.91;5062453;28;20009;-73
2022/09/09 05:45:04;;;;;;;;;;;;;;;13.17;100.00;100630.06;5063195;28;20042;-73
2022/09/09 05:47:30;;;;;;;;;;;;;;;13.18;100.00;100637.06;5049320;28;19932;-73
2022/09/09 05:49:55;;;;;;;;;;;;;;;13.18;100.00;100639.72;5049855;28;19928;-73
2022/09/09 05:52:20;;;;;;;;;;;;;;;13.21;100.00;100641.34;5048690;28;20363;-73
2022/09/09 05:54:46;;;;;;;;;;;;;;;13.23;100.00;100634.16;5051677;28;19925;-72
2022/09/09 05:57:11;;;;;;;;;;;;;;;13.24;100.00;100634.03;5053414;28;19972;-73
2022/09/09 05:59:38;;;;;;;;;;;;;;;13.26;100.00;100632.19;5052415;28;19981;-73
2022/09/09 06:02:03;;;;;;;;;;;;;;;13.29;100.00;100631.13;5054693;28;19929;-72
2022/09/09 06:04:30;;;;;;;;;;;;;;;13.31;100.00;100635.38;5054147;28;19938;-72
2022/09/09 06:06:55;;;;;;;;;;;;;;;13.34;100.00;100629.03;5052818;28;19932;-71
2022/09/09 06:09:20;;;;;;;;;;;;;;;13.37;100.00;100633.31;5046734;28;20383;-73
2022/09/09 06:11:46;;;;;;;;;;;;;;;13.39;100.00;100626.97;5051500;28;19943;-73
2022/09/09 06:14:11;;;;;;;;;;;;;;;13.41;100.00;100624.22;5050834;28;19928;-73
2022/09/09 06:16:43;;;;;;;;;;;;;;;13.45;100.00;100625.72;5050181;28;21501;-73
2022/09/09 06:19:09;;;;;;;;;;;;;;;13.47;100.00;100621.22;5052550;28;20030;-73
2022/09/09 06:21:38;;;;;;;;;;;;;;;13.50;100.00;100628.16;5051369;28;19928;-73
2022/09/09 06:24:04;;;;;;;;;;;;;;;13.53;100.00;100630.59;5051277;28;19943;-73
2022/09/09 06:26:30;;;;;;;;;;;;;;;13.56;100.00;100643.72;5050757;28;19924;-73
2022/09/09 06:28:57;;;;;;;;;;;;;;;13.55;100.00;100645.53;5053009;28;19928;-74
2022/09/09 06:31:23;;;;;;;;;;;;;;;13.57;100.00;100642.78;5050576;28;20551;-73
2022/09/09 06:33:49;;;;;;;;;;;;;;;13.60;100.00;100641.72;5054261;28;20390;-74
2022/09/09 06:36:16;;;;;;;;;;;;;;;13.58;100.00;100637.34;5050813;28;19939;-73
2022/09/09 06:38:42;;;;;;;;;;;;;;;13.61;100.00;100632.81;5050401;28;19924;-74
2022/09/09 06:41:08;;;;;;;;;;;;;;;13.59;100.00;100632.91;5017534;28;19935;-73
2022/09/09 06:43:34;;;;;;;;;;;;;;;13.59;100.00;100638.22;5037902;28;19932;-74
2022/09/09 06:46:03;;;;;;;;;;;;;;;13.59;100.00;100643.53;5050325;28;19929;-74
2022/09/09 06:48:28;;;;;;;;;;;;;;;13.59;100.00;100638.22;5048635;28;19939;-74
2022/09/09 06:51:01;;;;;;;;;;;;;;;13.59;100.00;100638.22;5050405;28;19928;-74
2022/09/09 06:53:27;;;;;;;;;;;;;;;13.60;100.00;100634.59;5051850;28;20555;-74
2022/09/09 06:55:52;;;;;;;;;;;;;;;13.60;100.00;100639.91;5032587;28;19928;-74
2022/09/09 06:58:18;;;;;;;;;;;;;;;13.61;100.00;100638.97;5044499;28;20378;-73
2022/09/09 07:00:43;;;;;;;;;;;;;;;13.63;100.00;100636.22;5041058;28;19959;-73
2022/09/09 07:03:09;;;;;;;;;;;;;;;13.64;100.00;100640.59;5050688;28;19975;-73
2022/09/09 07:05:35;;;;;;;;;;;;;;;13.65;100.00;100643.16;5049155;28;21276;-74
2022/09/09 07:08:00;;;;;;;;;;;;;;;13.68;100.00;100639.47;5051914;28;19951;-73
2022/09/09 07:10:25;;;;;;;;;;;;;;;13.73;100.00;100639.16;5047525;28;19943;-75
2022/09/09 07:12:52;;;;;;;;;;;;;;;13.75;100.00;100629.28;5049658;28;20392;-72
2022/09/09 07:15:18;;;;;;;;;;;;;;;13.78;100.00;100632.59;5049717;28;19935;-72
2022/09/09 07:17:44;;;;;;;;;;;;;;;13.79;100.00;100631.66;5047765;28;19939;-73
2022/09/09 07:20:09;;;;;;;;;;;;;;;13.79;100.00;100628.16;5048493;28;19928;-73
2022/09/09 07:22:35;;;;;;;;;;;;;;;13.82;100.00;100627.94;5047341;28;19936;-71
2022/09/09 07:25:02;;;;;;;;;;;;;;;13.85;100.00;100625.94;5050868;28;20361;-71
2022/09/09 07:27:27;;;;;;;;;;;;;;;13.90;100.00;100625.66;5048262;28;19983;-72
2022/09/09 07:29:54;;;;;;;;;;;;;;;13.91;100.00;100623.84;5047523;28;20196;-71
2022/09/09 07:32:19;;;;;;;;;;;;;;;13.92;100.00;100623.75;5048899;28;20473;-71
2022/09/09 07:34:46;;;;;;;;;;;;;;;13.97;100.00;100628.78;5051195;28;19932;-71
2022/09/09 07:37:13;;;;;;;;;;;;;;;14.05;100.00;100626.50;5051135;28;19925;-72
2022/09/09 07:39:39;;;;;;;;;;;;;;;14.12;100.00;100626.97;5050812;28;19947;-71
2022/09/09 07:42:04;;;;;;;;;;;;;;;14.21;100.00;100638.81;5047393;28;20299;-71
2022/09/09 07:44:32;;;;;;;;;;;;;;;14.29;100.00;100639.19;5047973;28;19928;-71
2022/09/09 07:46:57;;;;;;;;;;;;;;;14.47;100.00;100638.94;5035021;28;20106;-72
2022/09/09 07:49:23;;;;;;;;;;;;;;;14.60;100.00;100639.84;5048862;28;19924;-71
2022/09/09 07:51:49;;;;;;;;;;;;;;;14.72;100.00;100627.53;5049221;28;19928;-71
2022/09/09 07:54:15;;;;;;;;;;;;;;;14.83;100.00;100621.53;5049481;28;19939;-71
2022/09/09 07:56:41;;;;;;;;;;;;;;;14.94;100.00;100620.81;5048031;28;20011;-70
2022/09/09 07:59:07;;;;;;;;;;;;;;;15.07;100.00;100627.00;5030082;28;20076;-70
2022/09/09 08:01:34;;;;;;;;;;;;;;;15.18;100.00;100628.06;5049081;28;20311;-71
2022/09/09 08:04:00;;;;;;;;;;;;;;;15.25;100.00;100626.69;5050265;28;20090;-71
2022/09/09 08:06:32;;;;;;;;;;;;;;;15.28;100.00;100629.16;5050389;28;20326;-71
2022/09/09 08:08:57;;;;;;;;;;;;;;;15.36;100.00;100627.78;5058287;28;20009;-71
2022/09/09 08:11:23;;;;;;;;;;;;;;;15.44;100.00;100626.28;5035196;28;19929;-71
2022/09/09 08:13:49;;;;;;;;;;;;;;;15.51;100.00;100629.38;5049822;28;19924;-71
2022/09/09 08:16:16;;;;;;;;;;;;;;;15.65;100.00;100622.22;5048602;28;19925;-71
2022/09/09 08:18:41;;;;;;;;;;;;;;;15.77;100.00;100640.03;5050208;28;19928;-71
2022/09/09 08:21:06;;;;;;;;;;;;;;;15.83;100.00;100634.25;5048621;28;19935;-74
2022/09/09 08:23:32;;;;;;;;;;;;;;;15.92;100.00;100639.94;5065666;28;19974;-75
2022/09/09 08:26:09;;;;;;;;;;;;;;;16.05;100.00;100638.09;5049321;28;20031;-75
2022/09/09 08:28:34;;;;;;;;;;;;;;;16.19;100.00;100629.09;5045965;28;19928;-75
2022/09/09 08:31:06;;;;;;;;;;;;;;;16.28;100.00;100635.56;5045545;28;20604;-75
2022/09/09 08:33:33;;;;;;;;;;;;;;;16.41;100.00;100632.84;5056538;28;19958;-75
2022/09/09 08:35:58;;;;;;;;;;;;;;;16.50;100.00;100631.34;5047777;28;19935;-74
2022/09/09 08:38:24;;;;;;;;;;;;;;;16.55;100.00;100632.69;5037505;28;19925;-74
2022/09/09 08:40:50;;;;;;;;;;;;;;;16.58;100.00;100638.75;5048993;28;19925;-74
2022/09/09 08:43:17;;;;;;;;;;;;;;;16.62;100.00;100640.25;5048331;28;20039;-77
2022/09/09 08:45:48;;;;;;;;;;;;;;;16.65;100.00;100646.22;5047703;28;19928;-74
2022/09/09 08:48:29;;;;;;;;;;;;;;;16.69;100.00;100645.00;5032765;28;20410;-74
2022/09/09 08:51:01;;;;;;;;;;;;;;;16.73;100.00;100645.66;5033379;28;19929;-74
2022/09/09 08:53:34;;;;;;;;;;;;;;;16.82;100.00;100649.44;5051992;28;19924;-73
2022/09/09 08:56:00;;;;;;;;;;;;;;;16.90;100.00;100649.72;5049270;28;19929;-74
2022/09/09 08:58:31;;;;;;;;;;;;;;;16.94;100.00;100650.34;5048006;28;19982;-74
2022/09/09 09:01:09;;;;;;;;;;;;;;;16.97;100.00;100648.31;5046998;28;19974;-74
2022/09/09 09:03:43;;;;;;;;;;;;;;;17.04;100.00;100653.19;5050408;28;19936;-74
2022/09/09 09:06:28;;;;;;;;;;;;;;;17.07;100.00;100655.66;5048978;28;21460;-74
2022/09/09 09:08:56;;;;;;;;;;;;;;;17.10;100.00;100656.25;5048265;28;20029;-74
2022/09/09 09:11:22;;;;;;;;;;;;;;;17.06;100.00;100661.97;5050336;28;19928;-74
2022/09/09 09:13:56;;;;;;;;;;;;;;;17.00;100.00;100676.59;5046919;28;19932;-73
2022/09/09 09:16:27;;;;;;;;;;;;;;;16.97;100.00;100663.47;5048779;28;19928;-74
2022/09/09 09:18:54;;;;;;;;;;;;;;;16.91;100.00;100667.47;5049778;28;21735;-73
2022/09/09 09:21:20;;;;;;;;;;;;;;;16.87;100.00;100668.66;5049872;28;19936;-73
2022/09/09 09:23:51;;;;;;;;;;;;;;;16.84;100.00;100672.41;5052151;28;19931;-73
2022/09/09 09:26:17;;;;;;;;;;;;;;;16.82;100.00;100673.50;5049930;28;20380;-73
2022/09/09 09:28:42;;;;;;;;;;;;;;;16.79;100.00;100671.06;5050295;28;19931;-73
2022/09/09 09:31:11;;;;;;;;;;;;;;;16.77;100.00;100675.69;5047823;28;19928;-73
2022/09/09 09:33:40;;;;;;;;;;;;;;;16.78;100.00;100680.06;5051654;28;20421;-74
2022/09/09 09:36:08;;;;;;;;;;;;;;;16.79;100.00;100684.44;5053546;28;19933;-74
2022/09/09 09:38:34;;;;;;;;;;;;;;;16.80;100.00;100683.47;5050756;28;19964;-74
2022/09/09 09:41:00;;;;;;;;;;;;;;;16.82;100.00;100685.06;5048917;28;20011;-71
2022/09/09 09:43:29;;;;;;;;;;;;;;;16.85;100.00;100689.31;5047058;28;19932;-74
2022/09/09 09:45:57;;;;;;;;;;;;;;;16.92;100.00;100693.25;5049479;28;20405;-75
2022/09/09 09:48:25;;;;;;;;;;;;;;;16.99;100.00;100687.44;5050156;28;20082;-75
2022/09/09 09:50:51;;;;;;;;;;;;;;;17.07;100.00;100691.28;5034939;28;20657;-74
2022/09/09 09:53:19;;;;;;;;;;;;;;;17.16;100.00;100681.69;5065862;28;19982;-75
2022/09/09 09:55:48;;;;;;;;;;;;;;;17.24;100.00;100695.34;5021447;28;20041;-75
2022/09/09 09:58:14;;;;;;;;;;;;;;;17.27;100.00;100693.41;5017476;28;19928;-73
2022/09/09 10:00:48;;;;;;;;;;;;;;;17.27;100.00;100688.88;5031114;28;19932;-74
2022/09/09 10:03:28;;;;;;;;;;;;;;;17.27;100.00;100693.41;5050815;28;20418;-74
2022/09/09 10:05:53;;;;;;;;;;;;;;;17.33;100.00;100679.56;5050964;28;19928;-74
2022/09/09 10:08:20;;;;;;;;;;;;;;;17.36;100.00;100690.00;5050641;28;20330;-76
2022/09/09 10:10:51;;;;;;;;;;;;;;;17.40;100.00;100688.81;5051456;28;19974;-75
2022/09/09 10:13:21;;;;;;;;;;;;;;;17.43;100.00;100688.56;5052391;28;20020;-75
2022/09/09 10:15:58;;;;;;;;;;;;;;;17.49;100.00;100688.09;5052278;28;20383;-75
2022/09/09 10:18:38;;;;;;;;;;;;;;;17.61;100.00;100688.13;5052125;28;20016;-74
2022/09/09 10:21:22;;;;;;;;;;;;;;;17.63;100.00;100689.69;5053197;28;20011;-75
2022/09/09 10:24:06;;;;;;;;;;;;;;;17.66;100.00;100693.97;5051405;28;20300;-76
2022/09/09 10:26:40;;;;;;;;;;;;;;;17.64;100.00;100686.06;5052293;28;20409;-75
2022/09/09 10:29:06;;;;;;;;;;;;;;;17.69;100.00;100684.84;5050112;28;19936;-75
2022/09/09 10:31:35;;;;;;;;;;;;;;;17.82;100.00;100679.38;5051692;28;19924;-75
2022/09/09 10:34:06;;;;;;;;;;;;;;;18.00;100.00;100685.09;5029474;28;20017;-76
2022/09/09 10:36:32;;;;;;;;;;;;;;;18.17;100.00;100675.72;5050147;28;20207;-76
2022/09/09 10:39:27;;;;;;;;;;;;;;;18.20;100.00;100675.50;5037301;28;20654;-75
2022/09/09 10:42:02;;;;;;;;;;;;;;;18.22;100.00;100678.03;5043700;28;19929;-76
2022/09/09 10:44:27;;;;;;;;;;;;;;;18.21;100.00;100679.88;5049914;28;19932;-75
2022/09/09 10:47:13;;;;;;;;;;;;;;;18.17;100.00;100679.28;5053109;28;19928;-74
2022/09/09 10:49:49;;;;;;;;;;;;;;;18.13;100.00;100679.63;5051680;28;19955;-73
2022/09/09 10:52:29;;;;;;;;;;;;;;;18.08;100.00;100671.13;5051073;28;20057;-71
2022/09/09 10:54:54;;;;;;;;;;;;;;;17.98;100.00;100679.84;5046161;28;19925;-71
2022/09/09 10:57:30;;;;;;;;;;;;;;;17.99;100.00;100686.94;5043210;28;19931;-71
2022/09/09 10:59:57;;;;;;;;;;;;;;;18.01;100.00;100671.59;5047292;28;19924;-73
2022/09/09 11:02:29;;;;;;;;;;;;;;;18.00;100.00;100685.09;5034232;28;20346;-73
2022/09/09 11:04:55;;;;;;;;;;;;;;;18.09;100.00;100683.53;5052464;28;20033;-73
2022/09/09 11:07:40;;;;;;;;;;;;;;;18.23;100.00;100685.97;5042117;28;19928;-73
2022/09/09 11:10:11;;;;;;;;;;;;;;;18.32;100.00;100679.00;5041744;28;19936;-74
2022/09/09 11:12:36;;;;;;;;;;;;;;;18.36;100.00;100685.81;5048491;28;20344;-74
2022/09/09 11:15:17;;;;;;;;;;;;;;;18.34;100.00;100687.75;5048707;28;20179;-74
2022/09/09 11:17:43;;;;;;;;;;;;;;;18.23;100.00;100683.28;5049719;28;20513;-74
2022/09/09 11:20:12;;;;;;;;;;;;;;;18.15;100.00;100689.25;5037654;28;19951;-74
2022/09/09 11:22:59;;;;;;;;;;;;;;;18.11;100.00;100685.13;5048447;28;19925;-74
2022/09/09 11:25:27;;;;;;;;;;;;;;;18.12;100.00;100688.63;5050939;28;19935;-74
2022/09/09 11:28:15;;;;;;;;;;;;;;;18.17;100.00;100690.00;5051940;28;19928;-74
2022/09/09 11:30:43;;;;;;;;;;;;;;;18.30;100.00;100681.81;5041033;28;19923;-74
2022/09/09 11:33:11;;;;;;;;;;;;;;;18.42;100.00;100676.44;5050848;28;19929;-74
2022/09/09 11:35:43;;;;;;;;;;;;;;;18.53;100.00;100681.75;5050323;28;20342;-74
2022/09/09 11:38:17;;;;;;;;;;;;;;;18.56;100.00;100676.16;5029870;28;19995;-76
2022/09/09 11:40:43;;;;;;;;;;;;;;;18.58;100.00;100679.53;5048387;28;20011;-76
2022/09/09 11:43:12;;;;;;;;;;;;;;;18.54;99.04;100678.13;5050919;28;19924;-73
2022/09/09 11:45:38;;;;;;;;;;;;;;;18.52;100.00;100681.91;5048723;28;19928;-74
2022/09/09 11:48:04;;;;;;;;;;;;;;;18.51;100.00;100681.03;5050537;28;20401;-74
2022/09/09 11:50:31;;;;;;;;;;;;;;;18.51;100.00;100670.31;5050704;28;20911;-74
2022/09/09 11:53:16;;;;;;;;;;;;;;;18.54;100.00;100677.25;5047147;28;19947;-73
2022/09/09 11:55:42;;;;;;;;;;;;;;;18.54;100.00;100672.75;5049028;28;19975;-73
2022/09/09 11:58:13;;;;;;;;;;;;;;;18.53;100.00;100679.06;5050536;28;19988;-73
2022/09/09 12:00:44;;;;;;;;;;;;;;;18.43;100.00;100678.97;5047924;28;19924;-75
2022/09/09 12:03:28;;;;;;;;;;;;;;;18.34;100.00;100681.56;5049544;28;19928;-74
2022/09/09 12:05:53;;;;;;;;;;;;;;;18.20;100.00;100678.19;5051055;28;19931;-75
2022/09/09 12:08:22;;;;;;;;;;;;;;;18.12;100.00;100669.88;5049526;28;20311;-71
2022/09/09 12:10:55;;;;;;;;;;;;;;;18.05;100.00;100674.91;5052968;28;20469;-71
2022/09/09 12:13:22;;;;;;;;;;;;;;;18.04;100.00;100674.00;5047782;28;19924;-71
2022/09/09 12:15:49;;;;;;;;;;;;;;;18.20;100.00;100670.16;5032400;28;19972;-72
2022/09/09 12:18:34;;;;;;;;;;;;;;;18.35;100.00;100675.22;5048530;28;19975;-71
2022/09/09 12:21:15;;;;;;;;;;;;;;;18.44;100.00;100672.66;5049986;28;19931;-71
2022/09/09 12:23:50;;;;;;;;;;;;;;;18.47;100.00;100666.19;5050442;28;19928;-71
2022/09/09 12:26:31;;;;;;;;;;;;;;;18.50;100.00;100676.66;5048729;28;19925;-73
2022/09/09 12:29:00;;;;;;;;;;;;;;;18.49;100.00;100684.81;5048398;28;19931;-73
2022/09/09 12:31:46;;;;;;;;;;;;;;;18.42;100.00;100676.44;5047891;28;20406;-73
2022/09/09 12:34:31;;;;;;;;;;;;;;;18.32;100.00;100669.13;5049579;28;19924;-73
2022/09/09 12:37:09;;;;;;;;;;;;;;;18.35;100.00;100670.72;5033662;28;19936;-73